KAXN/AXN METAR and TAF weather

Enter ICAO airport designator
Station Type Date Time Source
KAXN METAR 2021/10/22 19:53 UTC NOAA

KAXN 221953Z AUTO 01005KT 10SM CLR 08/M04 A3006 RMK AO2 SLP193 T00831044


Station Type Date Time Source
KAXN Decoded METAR 2021/10/22 19:53 UTC NOAA

CHANDLER FIELD, MN, United States (KAXN) 45-52N 095-24W 433M
Oct 22, 2021 - 03:53 PM EDT / 2021.10.22 1953 UTC
Wind: from the N (010 degrees) at 6 MPH (5 KT):0
Visibility: 10 mile(s):0
Sky conditions: clear
Temperature: 46.9 F (8.3 C)
Dew Point: 24.1 F (-4.4 C)
Relative Humidity: 40%
Pressure (altimeter): 30.06 in. Hg (1017 hPa)
ob: KAXN 221953Z AUTO 01005KT 10SM CLR 08/M04 A3006 RMK AO2 SLP193 T00831044
cycle: 20

Station Type Date Time Source
KAXN TAF 2021/10/22 18:33 UTC NOAA

TAF KAXN 221730Z 2218/2318 03005KT P6SM SKC
FM231200 11007KT P6SM SKC

Example: see airport list